sensor_id;sensor_type;location;lat;lon;timestamp;temperature;humidity
37938;DHT22;23763;48.130;11.602;2023-11-19T00:02:11;5.10;99.90
37938;DHT22;23763;48.130;11.602;2023-11-19T00:04:38;5.00;99.90
37938;DHT22;23763;48.130;11.602;2023-11-19T00:07:05;5.00;99.90
37938;DHT22;23763;48.130;11.602;2023-11-19T00:09:32;5.10;99.90
37938;DHT22;23763;48.130;11.602;2023-11-19T00:11:58;5.00;99.90
37938;DHT22;23763;48.130;11.602;2023-11-19T00:14:26;5.20;99.90
37938;DHT22;23763;48.130;11.602;2023-11-19T00:16:51;5.30;99.90
37938;DHT22;23763;48.130;11.602;2023-11-19T00:19:19;5.30;99.90
37938;DHT22;23763;48.130;11.602;2023-11-19T00:21:44;5.30;99.90
37938;DHT22;23763;48.130;11.602;2023-11-19T00:24:11;5.40;99.90
37938;DHT22;23763;48.130;11.602;2023-11-19T00:26:38;5.30;99.90
37938;DHT22;23763;48.130;11.602;2023-11-19T00:29:04;5.20;99.90
37938;DHT22;23763;48.130;11.602;2023-11-19T00:31:29;5.30;99.90
37938;DHT22;23763;48.130;11.602;2023-11-19T00:33:55;5.30;99.90
37938;DHT22;23763;48.130;11.602;2023-11-19T00:36:20;5.30;99.90
37938;DHT22;23763;48.130;11.602;2023-11-19T00:38:46;5.40;99.90
37938;DHT22;23763;48.130;11.602;2023-11-19T00:41:12;5.40;99.90
37938;DHT22;23763;48.130;11.602;2023-11-19T00:43:37;5.40;99.90
37938;DHT22;23763;48.130;11.602;2023-11-19T00:46:06;5.50;99.90
37938;DHT22;23763;48.130;11.602;2023-11-19T00:48:32;5.40;99.90
37938;DHT22;23763;48.130;11.602;2023-11-19T00:50:57;5.60;99.90
37938;DHT22;23763;48.130;11.602;2023-11-19T00:53:23;5.50;99.90
37938;DHT22;23763;48.130;11.602;2023-11-19T00:55:49;5.50;99.90
37938;DHT22;23763;48.130;11.602;2023-11-19T00:58:14;5.60;99.90
37938;DHT22;23763;48.130;11.602;2023-11-19T01:00:40;5.60;99.90
37938;DHT22;23763;48.130;11.602;2023-11-19T01:03:05;5.50;99.90
37938;DHT22;23763;48.130;11.602;2023-11-19T01:05:32;5.60;99.90
37938;DHT22;23763;48.130;11.602;2023-11-19T01:07:58;5.60;99.90
37938;DHT22;23763;48.130;11.602;2023-11-19T01:10:24;5.60;99.90
37938;DHT22;23763;48.130;11.602;2023-11-19T01:12:51;5.60;99.90
37938;DHT22;23763;48.130;11.602;2023-11-19T01:15:17;5.60;99.90
37938;DHT22;23763;48.130;11.602;2023-11-19T01:17:44;5.70;99.90
37938;DHT22;23763;48.130;11.602;2023-11-19T01:20:10;5.70;99.90
37938;DHT22;23763;48.130;11.602;2023-11-19T01:22:38;5.70;99.90
37938;DHT22;23763;48.130;11.602;2023-11-19T01:25:04;5.70;99.90
37938;DHT22;23763;48.130;11.602;2023-11-19T01:27:31;5.70;99.90
37938;DHT22;23763;48.130;11.602;2023-11-19T01:29:56;5.70;99.90
37938;DHT22;23763;48.130;11.602;2023-11-19T01:32:22;5.70;99.90
37938;DHT22;23763;48.130;11.602;2023-11-19T01:34:49;5.70;99.90
37938;DHT22;23763;48.130;11.602;2023-11-19T01:37:15;5.70;99.90
37938;DHT22;23763;48.130;11.602;2023-11-19T01:39:43;5.70;99.90
37938;DHT22;23763;48.130;11.602;2023-11-19T01:42:09;5.80;99.90
37938;DHT22;23763;48.130;11.602;2023-11-19T01:44:35;5.80;99.90
37938;DHT22;23763;48.130;11.602;2023-11-19T01:47:01;5.80;99.90
37938;DHT22;23763;48.130;11.602;2023-11-19T01:49:27;5.90;99.90
37938;DHT22;23763;48.130;11.602;2023-11-19T01:51:54;5.90;99.90
37938;DHT22;23763;48.130;11.602;2023-11-19T01:54:20;5.90;99.90
37938;DHT22;23763;48.130;11.602;2023-11-19T01:56:45;6.00;99.90
37938;DHT22;23763;48.130;11.602;2023-11-19T01:59:12;6.10;99.90
37938;DHT22;23763;48.130;11.602;2023-11-19T02:01:39;6.00;99.90
37938;DHT22;23763;48.130;11.602;2023-11-19T02:04:06;6.10;99.90
37938;DHT22;23763;48.130;11.602;2023-11-19T02:06:33;6.10;99.90
37938;DHT22;23763;48.130;11.602;2023-11-19T02:08:59;6.10;99.90
37938;DHT22;23763;48.130;11.602;2023-11-19T02:11:26;6.10;99.90
37938;DHT22;23763;48.130;11.602;2023-11-19T02:13:55;6.20;99.90
37938;DHT22;23763;48.130;11.602;2023-11-19T02:16:21;6.20;99.90
37938;DHT22;23763;48.130;11.602;2023-11-19T02:18:47;6.20;99.90
37938;DHT22;23763;48.130;11.602;2023-11-19T02:21:14;6.30;99.90
37938;DHT22;23763;48.130;11.602;2023-11-19T02:23:40;6.20;99.90
37938;DHT22;23763;48.130;11.602;2023-11-19T02:28:42;6.30;99.90
37938;DHT22;23763;48.130;11.602;2023-11-19T02:31:08;6.50;99.90
37938;DHT22;23763;48.130;11.602;2023-11-19T02:33:38;6.50;99.90
37938;DHT22;23763;48.130;11.602;2023-11-19T02:36:07;6.60;99.90
37938;DHT22;23763;48.130;11.602;2023-11-19T02:38:34;6.70;99.90
37938;DHT22;23763;48.130;11.602;2023-11-19T02:41:02;6.80;99.90
37938;DHT22;23763;48.130;11.602;2023-11-19T02:43:30;6.90;99.90
37938;DHT22;23763;48.130;11.602;2023-11-19T02:45:57;7.00;99.90
37938;DHT22;23763;48.130;11.602;2023-11-19T02:48:23;7.00;99.90
37938;DHT22;23763;48.130;11.602;2023-11-19T02:50:48;7.10;99.90
37938;DHT22;23763;48.130;11.602;2023-11-19T02:53:14;7.10;99.90
37938;DHT22;23763;48.130;11.602;2023-11-19T02:55:41;7.20;99.90
37938;DHT22;23763;48.130;11.602;2023-11-19T02:58:06;7.20;99.90
37938;DHT22;23763;48.130;11.602;2023-11-19T03:00:45;7.30;99.90
37938;DHT22;23763;48.130;11.602;2023-11-19T03:03:17;7.20;99.90
37938;DHT22;23763;48.130;11.602;2023-11-19T03:05:46;7.20;99.90
37938;DHT22;23763;48.130;11.602;2023-11-19T03:08:12;7.30;99.90
37938;DHT22;23763;48.130;11.602;2023-11-19T03:10:38;7.30;99.90
37938;DHT22;23763;48.130;11.602;2023-11-19T03:13:04;7.30;99.90
37938;DHT22;23763;48.130;11.602;2023-11-19T03:15:30;7.40;99.90
37938;DHT22;23763;48.130;11.602;2023-11-19T03:17:55;7.40;99.90
37938;DHT22;23763;48.130;11.602;2023-11-19T03:20:21;7.40;99.90
37938;DHT22;23763;48.130;11.602;2023-11-19T03:22:49;7.40;99.90
37938;DHT22;23763;48.130;11.602;2023-11-19T03:25:16;7.40;99.90
37938;DHT22;23763;48.130;11.602;2023-11-19T03:27:41;7.50;99.90
37938;DHT22;23763;48.130;11.602;2023-11-19T03:30:08;7.50;99.90
37938;DHT22;23763;48.130;11.602;2023-11-19T03:32:37;7.60;99.90
37938;DHT22;23763;48.130;11.602;2023-11-19T03:35:04;7.60;99.90
37938;DHT22;23763;48.130;11.602;2023-11-19T03:37:32;7.60;99.90
37938;DHT22;23763;48.130;11.602;2023-11-19T03:39:58;7.60;99.90
37938;DHT22;23763;48.130;11.602;2023-11-19T03:42:28;7.60;99.90
37938;DHT22;23763;48.130;11.602;2023-11-19T03:44:56;7.60;99.90
37938;DHT22;23763;48.130;11.602;2023-11-19T03:47:21;7.60;99.90
37938;DHT22;23763;48.130;11.602;2023-11-19T03:49:50;7.70;99.90
37938;DHT22;23763;48.130;11.602;2023-11-19T03:52:17;7.70;99.90
37938;DHT22;23763;48.130;11.602;2023-11-19T03:54:43;7.80;99.90
37938;DHT22;23763;48.130;11.602;2023-11-19T03:57:09;7.80;99.90
37938;DHT22;23763;48.130;11.602;2023-11-19T03:59:38;7.80;99.90
37938;DHT22;23763;48.130;11.602;2023-11-19T04:02:03;7.80;99.90
37938;DHT22;23763;48.130;11.602;2023-11-19T04:04:29;7.80;99.90
37938;DHT22;23763;48.130;11.602;2023-11-19T04:06:55;7.80;99.90
37938;DHT22;23763;48.130;11.602;2023-11-19T04:09:21;7.90;99.90
37938;DHT22;23763;48.130;11.602;2023-11-19T04:11:46;7.80;99.90
37938;DHT22;23763;48.130;11.602;2023-11-19T04:14:13;7.90;99.90
37938;DHT22;23763;48.130;11.602;2023-11-19T04:16:39;7.90;99.90
37938;DHT22;23763;48.130;11.602;2023-11-19T04:19:04;8.00;99.90
37938;DHT22;23763;48.130;11.602;2023-11-19T04:21:30;8.10;99.90
37938;DHT22;23763;48.130;11.602;2023-11-19T04:23:56;8.00;99.90
37938;DHT22;23763;48.130;11.602;2023-11-19T04:26:21;8.00;99.90
37938;DHT22;23763;48.130;11.602;2023-11-19T04:28:47;8.00;99.90
37938;DHT22;23763;48.130;11.602;2023-11-19T04:31:15;8.00;99.90
37938;DHT22;23763;48.130;11.602;2023-11-19T04:33:41;8.10;99.90
37938;DHT22;23763;48.130;11.602;2023-11-19T04:36:07;8.20;99.90
37938;DHT22;23763;48.130;11.602;2023-11-19T04:38:33;8.20;99.90
37938;DHT22;23763;48.130;11.602;2023-11-19T04:40:59;8.30;99.90
37938;DHT22;23763;48.130;11.602;2023-11-19T04:43:25;8.40;99.90
37938;DHT22;23763;48.130;11.602;2023-11-19T04:45:51;8.40;99.90
37938;DHT22;23763;48.130;11.602;2023-11-19T04:48:16;8.40;99.90
37938;DHT22;23763;48.130;11.602;2023-11-19T04:50:42;8.40;99.90
37938;DHT22;23763;48.130;11.602;2023-11-19T04:53:07;8.50;99.90
37938;DHT22;23763;48.130;11.602;2023-11-19T04:55:33;8.70;99.90
37938;DHT22;23763;48.130;11.602;2023-11-19T04:57:58;8.70;99.90
37938;DHT22;23763;48.130;11.602;2023-11-19T05:00:24;8.90;99.90
37938;DHT22;23763;48.130;11.602;2023-11-19T05:02:50;9.00;99.90
37938;DHT22;23763;48.130;11.602;2023-11-19T05:05:16;9.00;99.90
37938;DHT22;23763;48.130;11.602;2023-11-19T05:07:42;9.10;99.90
37938;DHT22;23763;48.130;11.602;2023-11-19T05:10:08;9.20;99.90
37938;DHT22;23763;48.130;11.602;2023-11-19T05:12:34;9.30;99.90
37938;DHT22;23763;48.130;11.602;2023-11-19T05:14:59;9.40;99.90
37938;DHT22;23763;48.130;11.602;2023-11-19T05:17:25;9.40;99.90
37938;DHT22;23763;48.130;11.602;2023-11-19T05:19:51;9.50;99.90
37938;DHT22;23763;48.130;11.602;2023-11-19T05:22:17;9.50;99.90
37938;DHT22;23763;48.130;11.602;2023-11-19T05:24:42;9.50;99.90
37938;DHT22;23763;48.130;11.602;2023-11-19T05:27:08;9.50;99.90
37938;DHT22;23763;48.130;11.602;2023-11-19T05:29:34;9.50;99.90
37938;DHT22;23763;48.130;11.602;2023-11-19T05:32:00;9.50;99.90
37938;DHT22;23763;48.130;11.602;2023-11-19T05:34:25;9.60;99.90
37938;DHT22;23763;48.130;11.602;2023-11-19T05:36:51;9.60;99.90
37938;DHT22;23763;48.130;11.602;2023-11-19T05:39:17;9.60;99.90
37938;DHT22;23763;48.130;11.602;2023-11-19T05:41:46;9.60;99.90
37938;DHT22;23763;48.130;11.602;2023-11-19T05:44:11;9.60;99.90
37938;DHT22;23763;48.130;11.602;2023-11-19T05:46:37;9.60;99.90
37938;DHT22;23763;48.130;11.602;2023-11-19T05:49:06;9.60;99.90
37938;DHT22;23763;48.130;11.602;2023-11-19T05:51:35;9.60;99.90
37938;DHT22;23763;48.130;11.602;2023-11-19T05:54:01;9.70;99.90
37938;DHT22;23763;48.130;11.602;2023-11-19T05:56:27;9.60;99.90
37938;DHT22;23763;48.130;11.602;2023-11-19T05:58:57;9.60;99.90
37938;DHT22;23763;48.130;11.602;2023-11-19T06:01:23;9.60;99.90
37938;DHT22;23763;48.130;11.602;2023-11-19T06:03:49;9.60;99.90
37938;DHT22;23763;48.130;11.602;2023-11-19T06:06:15;9.60;99.90
37938;DHT22;23763;48.130;11.602;2023-11-19T06:08:41;9.60;99.90
37938;DHT22;23763;48.130;11.602;2023-11-19T06:11:07;9.70;99.90
37938;DHT22;23763;48.130;11.602;2023-11-19T06:13:32;9.70;99.90
37938;DHT22;23763;48.130;11.602;2023-11-19T06:15:58;9.70;99.90
37938;DHT22;23763;48.130;11.602;2023-11-19T06:18:24;9.70;99.90
37938;DHT22;23763;48.130;11.602;2023-11-19T06:20:50;9.70;99.90
37938;DHT22;23763;48.130;11.602;2023-11-19T06:23:16;9.70;99.90
37938;DHT22;23763;48.130;11.602;2023-11-19T06:25:41;9.70;99.90
37938;DHT22;23763;48.130;11.602;2023-11-19T06:28:07;9.70;99.90
37938;DHT22;23763;48.130;11.602;2023-11-19T06:30:33;9.80;99.90
37938;DHT22;23763;48.130;11.602;2023-11-19T06:32:58;9.80;99.90
37938;DHT22;23763;48.130;11.602;2023-11-19T06:35:25;9.90;99.90
37938;DHT22;23763;48.130;11.602;2023-11-19T06:37:50;9.80;99.90
37938;DHT22;23763;48.130;11.602;2023-11-19T06:40:16;9.80;99.90
37938;DHT22;23763;48.130;11.602;2023-11-19T06:42:41;9.90;99.90
37938;DHT22;23763;48.130;11.602;2023-11-19T06:45:07;9.80;99.90
37938;DHT22;23763;48.130;11.602;2023-11-19T06:47:33;9.80;99.90
37938;DHT22;23763;48.130;11.602;2023-11-19T06:49:59;9.80;99.90
37938;DHT22;23763;48.130;11.602;2023-11-19T06:52:24;9.90;99.90
37938;DHT22;23763;48.130;11.602;2023-11-19T06:54:50;9.90;99.90
37938;DHT22;23763;48.130;11.602;2023-11-19T06:57:16;9.90;99.90
37938;DHT22;23763;48.130;11.602;2023-11-19T06:59:42;10.00;99.90
37938;DHT22;23763;48.130;11.602;2023-11-19T07:02:07;10.00;99.90
37938;DHT22;23763;48.130;11.602;2023-11-19T07:04:34;9.90;99.90
37938;DHT22;23763;48.130;11.602;2023-11-19T07:06:59;10.00;99.90
37938;DHT22;23763;48.130;11.602;2023-11-19T07:09:26;10.00;99.90
37938;DHT22;23763;48.130;11.602;2023-11-19T07:11:51;10.00;99.90
37938;DHT22;23763;48.130;11.602;2023-11-19T07:14:18;10.10;99.90
37938;DHT22;23763;48.130;11.602;2023-11-19T07:16:44;10.30;99.90
37938;DHT22;23763;48.130;11.602;2023-11-19T07:19:10;10.20;99.90
37938;DHT22;23763;48.130;11.602;2023-11-19T07:21:36;10.20;99.90
37938;DHT22;23763;48.130;11.602;2023-11-19T07:24:09;10.20;99.90
37938;DHT22;23763;48.130;11.602;2023-11-19T07:26:35;10.20;99.90
37938;DHT22;23763;48.130;11.602;2023-11-19T07:29:01;10.40;99.90
37938;DHT22;23763;48.130;11.602;2023-11-19T07:31:27;10.30;99.90
37938;DHT22;23763;48.130;11.602;2023-11-19T07:33:53;10.30;99.90
37938;DHT22;23763;48.130;11.602;2023-11-19T07:36:19;10.30;99.90
37938;DHT22;23763;48.130;11.602;2023-11-19T07:38:45;10.40;99.90
37938;DHT22;23763;48.130;11.602;2023-11-19T07:41:12;10.40;99.90
37938;DHT22;23763;48.130;11.602;2023-11-19T07:43:44;10.50;99.90
37938;DHT22;23763;48.130;11.602;2023-11-19T07:46:13;10.50;99.90
37938;DHT22;23763;48.130;11.602;2023-11-19T07:48:40;10.60;99.90
37938;DHT22;23763;48.130;11.602;2023-11-19T07:51:05;10.60;99.90
37938;DHT22;23763;48.130;11.602;2023-11-19T07:53:31;10.60;99.90
37938;DHT22;23763;48.130;11.602;2023-11-19T07:55:58;10.60;99.90
37938;DHT22;23763;48.130;11.602;2023-11-19T07:58:25;10.60;99.90
37938;DHT22;23763;48.130;11.602;2023-11-19T08:00:51;10.60;99.90
37938;DHT22;23763;48.130;11.602;2023-11-19T08:03:17;10.60;99.90
37938;DHT22;23763;48.130;11.602;2023-11-19T08:05:44;10.60;99.90
37938;DHT22;23763;48.130;11.602;2023-11-19T08:08:11;10.70;99.90
37938;DHT22;23763;48.130;11.602;2023-11-19T08:10:37;10.70;99.90
37938;DHT22;23763;48.130;11.602;2023-11-19T08:13:03;10.70;99.90
37938;DHT22;23763;48.130;11.602;2023-11-19T08:15:29;10.80;99.90
37938;DHT22;23763;48.130;11.602;2023-11-19T08:17:54;10.80;99.90
37938;DHT22;23763;48.130;11.602;2023-11-19T08:20:20;10.90;99.90
37938;DHT22;23763;48.130;11.602;2023-11-19T08:22:45;10.90;99.90
37938;DHT22;23763;48.130;11.602;2023-11-19T08:25:11;10.90;99.90
37938;DHT22;23763;48.130;11.602;2023-11-19T08:27:36;11.00;99.90
37938;DHT22;23763;48.130;11.602;2023-11-19T08:30:03;11.00;99.90
37938;DHT22;23763;48.130;11.602;2023-11-19T08:32:28;11.00;99.90
37938;DHT22;23763;48.130;11.602;2023-11-19T08:34:54;11.00;99.90
37938;DHT22;23763;48.130;11.602;2023-11-19T08:37:20;11.10;99.90
37938;DHT22;23763;48.130;11.602;2023-11-19T08:39:48;11.00;99.90
37938;DHT22;23763;48.130;11.602;2023-11-19T08:42:14;11.00;99.90
37938;DHT22;23763;48.130;11.602;2023-11-19T08:44:39;11.00;99.90
37938;DHT22;23763;48.130;11.602;2023-11-19T08:47:08;11.00;99.90
37938;DHT22;23763;48.130;11.602;2023-11-19T08:49:34;11.10;99.90
37938;DHT22;23763;48.130;11.602;2023-11-19T08:52:00;11.10;99.90
37938;DHT22;23763;48.130;11.602;2023-11-19T08:54:25;11.10;99.90
37938;DHT22;23763;48.130;11.602;2023-11-19T08:56:52;11.20;99.90
37938;DHT22;23763;48.130;11.602;2023-11-19T08:59:17;11.20;99.90
37938;DHT22;23763;48.130;11.602;2023-11-19T09:01:44;11.20;99.90
37938;DHT22;23763;48.130;11.602;2023-11-19T09:04:10;11.30;99.90
37938;DHT22;23763;48.130;11.602;2023-11-19T09:06:36;11.30;99.90
37938;DHT22;23763;48.130;11.602;2023-11-19T09:09:01;11.40;99.90
37938;DHT22;23763;48.130;11.602;2023-11-19T09:11:28;11.40;99.90
37938;DHT22;23763;48.130;11.602;2023-11-19T09:13:54;11.50;99.90
37938;DHT22;23763;48.130;11.602;2023-11-19T09:16:20;11.40;99.90
37938;DHT22;23763;48.130;11.602;2023-11-19T09:18:45;11.40;99.90
37938;DHT22;23763;48.130;11.602;2023-11-19T09:21:11;11.40;99.90
37938;DHT22;23763;48.130;11.602;2023-11-19T09:23:37;11.40;99.90
37938;DHT22;23763;48.130;11.602;2023-11-19T09:26:13;11.50;99.90
37938;DHT22;23763;48.130;11.602;2023-11-19T09:28:39;11.50;99.90
37938;DHT22;23763;48.130;11.602;2023-11-19T09:31:17;11.50;99.90
37938;DHT22;23763;48.130;11.602;2023-11-19T09:33:43;11.60;99.90
37938;DHT22;23763;48.130;11.602;2023-11-19T09:36:09;11.60;99.90
37938;DHT22;23763;48.130;11.602;2023-11-19T09:38:36;11.70;99.90
37938;DHT22;23763;48.130;11.602;2023-11-19T09:41:05;11.70;99.90
37938;DHT22;23763;48.130;11.602;2023-11-19T09:43:34;11.80;99.90
37938;DHT22;23763;48.130;11.602;2023-11-19T09:46:09;11.80;99.90
37938;DHT22;23763;48.130;11.602;2023-11-19T09:48:37;11.80;99.90
37938;DHT22;23763;48.130;11.602;2023-11-19T09:51:05;11.70;99.90
37938;DHT22;23763;48.130;11.602;2023-11-19T09:53:31;11.70;99.90
37938;DHT22;23763;48.130;11.602;2023-11-19T09:56:05;11.70;99.90
37938;DHT22;23763;48.130;11.602;2023-11-19T09:58:32;11.80;99.90
37938;DHT22;23763;48.130;11.602;2023-11-19T10:00:58;11.80;99.90
37938;DHT22;23763;48.130;11.602;2023-11-19T10:03:25;11.90;99.90
37938;DHT22;23763;48.130;11.602;2023-11-19T10:05:52;12.10;99.90
37938;DHT22;23763;48.130;11.602;2023-11-19T10:08:19;12.20;99.90
37938;DHT22;23763;48.130;11.602;2023-11-19T10:10:44;12.30;99.90
37938;DHT22;23763;48.130;11.602;2023-11-19T10:13:10;12.30;99.90
37938;DHT22;23763;48.130;11.602;2023-11-19T10:15:37;12.50;99.90
37938;DHT22;23763;48.130;11.602;2023-11-19T10:18:03;12.60;99.90
37938;DHT22;23763;48.130;11.602;2023-11-19T10:20:36;12.50;99.90
37938;DHT22;23763;48.130;11.602;2023-11-19T10:23:02;12.70;99.90
37938;DHT22;23763;48.130;11.602;2023-11-19T10:25:28;12.60;99.90
37938;DHT22;23763;48.130;11.602;2023-11-19T10:27:55;12.60;99.90
37938;DHT22;23763;48.130;11.602;2023-11-19T10:30:25;12.60;99.90
37938;DHT22;23763;48.130;11.602;2023-11-19T10:33:10;12.50;99.90
37938;DHT22;23763;48.130;11.602;2023-11-19T10:38:25;12.60;99.90
37938;DHT22;23763;48.130;11.602;2023-11-19T10:40:52;12.50;99.90
37938;DHT22;23763;48.130;11.602;2023-11-19T10:43:21;12.50;99.90
37938;DHT22;23763;48.130;11.602;2023-11-19T10:45:48;12.60;99.90
37938;DHT22;23763;48.130;11.602;2023-11-19T10:48:14;12.70;99.90
37938;DHT22;23763;48.130;11.602;2023-11-19T10:50:41;12.90;99.90
37938;DHT22;23763;48.130;11.602;2023-11-19T10:53:08;13.10;99.90
37938;DHT22;23763;48.130;11.602;2023-11-19T10:55:36;13.10;99.90
37938;DHT22;23763;48.130;11.602;2023-11-19T10:58:08;13.20;99.90
37938;DHT22;23763;48.130;11.602;2023-11-19T11:00:45;13.20;99.90
37938;DHT22;23763;48.130;11.602;2023-11-19T11:03:19;13.20;99.90
37938;DHT22;23763;48.130;11.602;2023-11-19T11:05:49;13.20;99.90
37938;DHT22;23763;48.130;11.602;2023-11-19T11:08:16;13.40;99.90
37938;DHT22;23763;48.130;11.602;2023-11-19T11:10:48;13.30;99.90
37938;DHT22;23763;48.130;11.602;2023-11-19T11:13:18;13.10;99.90
37938;DHT22;23763;48.130;11.602;2023-11-19T11:15:48;13.00;99.90
37938;DHT22;23763;48.130;11.602;2023-11-19T11:18:14;12.90;99.90
37938;DHT22;23763;48.130;11.602;2023-11-19T11:20:40;13.00;99.90
37938;DHT22;23763;48.130;11.602;2023-11-19T11:23:42;13.10;99.90
37938;DHT22;23763;48.130;11.602;2023-11-19T11:37:42;13.20;99.90
37938;DHT22;23763;48.130;11.602;2023-11-19T11:40:15;13.10;99.90
37938;DHT22;23763;48.130;11.602;2023-11-19T11:42:41;13.00;99.90
37938;DHT22;23763;48.130;11.602;2023-11-19T11:45:09;13.00;99.90
37938;DHT22;23763;48.130;11.602;2023-11-19T11:55:33;13.10;99.90
37938;DHT22;23763;48.130;11.602;2023-11-19T11:58:00;13.00;99.90
37938;DHT22;23763;48.130;11.602;2023-11-19T12:00:39;13.00;99.90
37938;DHT22;23763;48.130;11.602;2023-11-19T12:03:06;13.00;99.90
37938;DHT22;23763;48.130;11.602;2023-11-19T12:05:33;13.20;99.90
37938;DHT22;23763;48.130;11.602;2023-11-19T12:08:06;13.10;99.90
37938;DHT22;23763;48.130;11.602;2023-11-19T12:10:49;13.00;99.90
37938;DHT22;23763;48.130;11.602;2023-11-19T12:13:17;13.10;99.90
37938;DHT22;23763;48.130;11.602;2023-11-19T12:16:07;13.10;99.90
37938;DHT22;23763;48.130;11.602;2023-11-19T12:18:33;13.00;99.90
37938;DHT22;23763;48.130;11.602;2023-11-19T12:21:02;12.90;99.90
37938;DHT22;23763;48.130;11.602;2023-11-19T12:23:29;13.00;99.90
37938;DHT22;23763;48.130;11.602;2023-11-19T12:25:56;12.90;99.90
37938;DHT22;23763;48.130;11.602;2023-11-19T12:28:21;13.00;99.90
37938;DHT22;23763;48.130;11.602;2023-11-19T12:30:50;13.00;99.90
37938;DHT22;23763;48.130;11.602;2023-11-19T12:33:16;13.20;99.90
37938;DHT22;23763;48.130;11.602;2023-11-19T12:35:44;13.30;99.90
37938;DHT22;23763;48.130;11.602;2023-11-19T12:38:25;13.40;99.90
37938;DHT22;23763;48.130;11.602;2023-11-19T12:41:04;13.30;99.90
37938;DHT22;23763;48.130;11.602;2023-11-19T12:43:30;13.30;99.90
37938;DHT22;23763;48.130;11.602;2023-11-19T12:45:56;13.20;99.90
37938;DHT22;23763;48.130;11.602;2023-11-19T12:48:22;13.40;99.90
37938;DHT22;23763;48.130;11.602;2023-11-19T12:50:58;13.40;99.90
37938;DHT22;23763;48.130;11.602;2023-11-19T12:53:26;13.50;99.90
37938;DHT22;23763;48.130;11.602;2023-11-19T12:55:53;13.60;99.90
37938;DHT22;23763;48.130;11.602;2023-11-19T12:58:45;13.90;99.90
37938;DHT22;23763;48.130;11.602;2023-11-19T13:01:18;14.40;99.90
37938;DHT22;23763;48.130;11.602;2023-11-19T13:03:44;14.50;99.90
37938;DHT22;23763;48.130;11.602;2023-11-19T13:06:12;14.70;99.90
37938;DHT22;23763;48.130;11.602;2023-11-19T13:08:56;14.80;99.90
37938;DHT22;23763;48.130;11.602;2023-11-19T13:11:32;14.80;99.90
37938;DHT22;23763;48.130;11.602;2023-11-19T13:14:07;14.80;99.90
37938;DHT22;23763;48.130;11.602;2023-11-19T13:16:36;14.80;99.90
37938;DHT22;23763;48.130;11.602;2023-11-19T13:19:02;14.80;99.90
37938;DHT22;23763;48.130;11.602;2023-11-19T13:21:28;14.70;99.90
37938;DHT22;23763;48.130;11.602;2023-11-19T13:23:55;14.60;99.90
37938;DHT22;23763;48.130;11.602;2023-11-19T13:26:20;14.50;99.90
37938;DHT22;23763;48.130;11.602;2023-11-19T13:28:46;14.50;99.90
37938;DHT22;23763;48.130;11.602;2023-11-19T13:31:12;14.40;99.90
37938;DHT22;23763;48.130;11.602;2023-11-19T13:33:38;14.40;99.90
37938;DHT22;23763;48.130;11.602;2023-11-19T13:36:04;14.40;99.90
37938;DHT22;23763;48.130;11.602;2023-11-19T13:38:34;14.40;99.90
37938;DHT22;23763;48.130;11.602;2023-11-19T13:41:01;14.30;99.90
37938;DHT22;23763;48.130;11.602;2023-11-19T13:43:27;14.40;99.90
37938;DHT22;23763;48.130;11.602;2023-11-19T13:45:56;14.30;99.90
37938;DHT22;23763;48.130;11.602;2023-11-19T13:48:22;14.30;99.90
37938;DHT22;23763;48.130;11.602;2023-11-19T13:50:48;14.20;99.90
37938;DHT22;23763;48.130;11.602;2023-11-19T13:53:14;14.10;99.90
37938;DHT22;23763;48.130;11.602;2023-11-19T13:55:39;14.00;99.90
37938;DHT22;23763;48.130;11.602;2023-11-19T13:58:05;14.00;99.90
37938;DHT22;23763;48.130;11.602;2023-11-19T14:00:31;13.90;99.90
37938;DHT22;23763;48.130;11.602;2023-11-19T14:02:56;13.90;99.90
37938;DHT22;23763;48.130;11.602;2023-11-19T14:05:22;13.90;99.90
37938;DHT22;23763;48.130;11.602;2023-11-19T14:07:48;13.80;99.90
37938;DHT22;23763;48.130;11.602;2023-11-19T14:10:14;13.80;99.90
37938;DHT22;23763;48.130;11.602;2023-11-19T14:12:41;13.80;99.90
37938;DHT22;23763;48.130;11.602;2023-11-19T14:15:08;13.80;99.90
37938;DHT22;23763;48.130;11.602;2023-11-19T14:17:38;13.80;99.90
37938;DHT22;23763;48.130;11.602;2023-11-19T14:20:04;13.90;99.90
37938;DHT22;23763;48.130;11.602;2023-11-19T14:22:45;13.90;99.90
37938;DHT22;23763;48.130;11.602;2023-11-19T14:25:15;14.00;99.90
37938;DHT22;23763;48.130;11.602;2023-11-19T14:27:43;14.00;99.90
37938;DHT22;23763;48.130;11.602;2023-11-19T14:30:10;13.90;99.90
37938;DHT22;23763;48.130;11.602;2023-11-19T14:32:42;13.90;99.90
37938;DHT22;23763;48.130;11.602;2023-11-19T14:35:10;13.90;99.90
37938;DHT22;23763;48.130;11.602;2023-11-19T14:37:36;13.90;99.90
37938;DHT22;23763;48.130;11.602;2023-11-19T14:40:01;13.80;99.90
37938;DHT22;23763;48.130;11.602;2023-11-19T14:42:29;13.80;99.90
37938;DHT22;23763;48.130;11.602;2023-11-19T14:44:55;13.70;99.90
37938;DHT22;23763;48.130;11.602;2023-11-19T14:47:21;13.70;99.90
37938;DHT22;23763;48.130;11.602;2023-11-19T14:49:47;13.80;99.90
37938;DHT22;23763;48.130;11.602;2023-11-19T14:52:13;13.70;99.90
37938;DHT22;23763;48.130;11.602;2023-11-19T14:54:39;13.80;99.90
37938;DHT22;23763;48.130;11.602;2023-11-19T14:57:05;13.60;99.90
37938;DHT22;23763;48.130;11.602;2023-11-19T14:59:36;13.50;99.90
37938;DHT22;23763;48.130;11.602;2023-11-19T15:02:02;13.40;99.90
37938;DHT22;23763;48.130;11.602;2023-11-19T15:04:28;13.20;99.90
37938;DHT22;23763;48.130;11.602;2023-11-19T15:06:57;13.10;99.90
37938;DHT22;23763;48.130;11.602;2023-11-19T15:09:22;13.00;99.90
37938;DHT22;23763;48.130;11.602;2023-11-19T15:11:48;13.00;99.90
37938;DHT22;23763;48.130;11.602;2023-11-19T15:14:14;12.80;99.90
37938;DHT22;23763;48.130;11.602;2023-11-19T15:16:42;12.70;99.90
37938;DHT22;23763;48.130;11.602;2023-11-19T15:19:08;12.70;99.90
37938;DHT22;23763;48.130;11.602;2023-11-19T15:21:37;12.70;99.90
37938;DHT22;23763;48.130;11.602;2023-11-19T15:24:03;12.60;99.90
37938;DHT22;23763;48.130;11.602;2023-11-19T15:26:33;12.70;99.90
37938;DHT22;23763;48.130;11.602;2023-11-19T15:28:58;12.50;99.90
37938;DHT22;23763;48.130;11.602;2023-11-19T15:31:25;12.50;99.90
37938;DHT22;23763;48.130;11.602;2023-11-19T15:33:51;12.40;99.90
37938;DHT22;23763;48.130;11.602;2023-11-19T15:36:17;12.40;99.90
37938;DHT22;23763;48.130;11.602;2023-11-19T15:38:43;12.40;99.90
37938;DHT22;23763;48.130;11.602;2023-11-19T15:41:09;12.30;99.90
37938;DHT22;23763;48.130;11.602;2023-11-19T15:43:34;12.30;99.90
37938;DHT22;23763;48.130;11.602;2023-11-19T15:46:00;12.20;99.90
37938;DHT22;23763;48.130;11.602;2023-11-19T15:48:26;12.40;99.90